Terminal Aerodrome Forecast
Issued by NWS

Home | Current Version | Previous Version | Text Only | Print | Product List | Glossary On
Versions: 1 2 3 4 5 6 7 8 9 10 11 12 13 14 15 16 17 18 19
000
FTUS41 KGYX 271126
TAFAUG
TAF
KAUG 271126Z 2712/2812 22007KT P6SM SCT200
     FM271700 24008KT P6SM BKN050
      TEMPO 2719/2722 5SM -TSRA BKN035CB
     FM280000 32004KT P6SM BKN035
     FM280700 33005KT 3SM BR SCT008=

USA.gov is the U.S. government's official web portal to all federal, state and local government web resources and services.